Forside
METAR-TAF:

METAR-TAF

Lufthavne :

Tahiti, Fransk Polynesien

Breddekreds: 17-33S, længdekreds: 149-37W, højde: 2 m

Aktuelle vejr

Denne rapport blev lavet for 18 minutter siden, kl. 09:00 UTC
Vind 3 kt fra sydøst
Temperatur 24°C
Fugtighed 78%
Tryk 1015 hPa
Sigt 10 km eller mere
Nogle få skyer i en højde af 2300 ft

METAR: NTAA 230900Z 14003KT 9999 FEW023 24/20 Q1015 NOSIG

Tid: 23:18 (09:18 UTC)

Vejrudsigter

Denne rapport blev lavet for 4 timer og 18 minutter siden, kl. 05:00 UTC
Foreløbig gælder fra 23 på 06 UTC til 24 på 12 UTC
Vind 3 kt fra varierende retninger
Sigt 10 km eller mere
Nogle få skyer i en højde af 2500 ft
ændring
fra 23 på 18 UTC til 23 på 20 UTC
Vind 15 kt fra nordøst
ændring
fra 24 på 02 UTC til 24 på 04 UTC
Vind 3 kt fra varierende retninger

TAF: NTAA 230500Z 2306/2412 VRB03KT 9999 FEW025 BECMG 2318/2320 05015KT BECMG 2402/2404 VRB03KT

Vejrobservationer og prognoser fra mere end 4000 lufthavne (METAR og TAF).

De gule og røde prikker repræsenterer de meteorologiske stationer.

Flyt musen over at se navnet på stationen.

Så klik over at se vejr observationer og prognoser.

At skifte det kort: Klik på de grønne knapper med et sort kors for at zoome ind; på den grønne knap med en bindestreg for at zoome ud; eller på de grønne pile for tilstødende kort.


METAR-TAF: